sensor_id;sensor_type;location;lat;lon;timestamp;P1;durP1;ratioP1;P2;durP2;ratioP2
10894;SDS011;5500;49.886;8.074;2023-01-06T00:01:25;6.23;;;3.53;;
10894;SDS011;5500;49.886;8.074;2023-01-06T00:29:09;3.53;;;1.70;;
10894;SDS011;5500;49.886;8.074;2023-01-06T00:41:32;2.13;;;1.93;;
10894;SDS011;5500;49.886;8.074;2023-01-06T00:51:53;1.80;;;1.70;;
10894;SDS011;5500;49.886;8.074;2023-01-06T00:56:49;1.70;;;1.60;;
10894;SDS011;5500;49.886;8.074;2023-01-06T00:59:18;3.27;;;1.70;;
10894;SDS011;5500;49.886;8.074;2023-01-06T01:21:04;1.40;;;1.30;;
10894;SDS011;5500;49.886;8.074;2023-01-06T01:57:10;1.83;;;1.30;;
10894;SDS011;5500;49.886;8.074;2023-01-06T01:59:41;1.80;;;1.70;;
10894;SDS011;5500;49.886;8.074;2023-01-06T02:02:12;2.17;;;1.37;;
10894;SDS011;5500;49.886;8.074;2023-01-06T02:04:42;1.30;;;1.20;;
10894;SDS011;5500;49.886;8.074;2023-01-06T02:07:12;1.80;;;0.77;;
10894;SDS011;5500;49.886;8.074;2023-01-06T02:09:41;0.93;;;0.93;;
10894;SDS011;5500;49.886;8.074;2023-01-06T02:12:14;1.17;;;0.80;;
10894;SDS011;5500;49.886;8.074;2023-01-06T02:14:42;0.80;;;0.80;;
10894;SDS011;5500;49.886;8.074;2023-01-06T02:17:17;0.80;;;0.80;;
10894;SDS011;5500;49.886;8.074;2023-01-06T02:19:59;0.80;;;0.80;;
10894;SDS011;5500;49.886;8.074;2023-01-06T02:22:43;0.90;;;0.90;;
10894;SDS011;5500;49.886;8.074;2023-01-06T02:25:27;1.03;;;0.97;;
10894;SDS011;5500;49.886;8.074;2023-01-06T02:31:30;1.20;;;1.10;;
10894;SDS011;5500;49.886;8.074;2023-01-06T02:34:10;1.60;;;0.70;;
10894;SDS011;5500;49.886;8.074;2023-01-06T02:36:42;1.20;;;1.10;;
10894;SDS011;5500;49.886;8.074;2023-01-06T02:44:16;1.00;;;1.00;;
10894;SDS011;5500;49.886;8.074;2023-01-06T02:51:55;0.87;;;0.87;;
10894;SDS011;5500;49.886;8.074;2023-01-06T02:54:27;0.80;;;0.80;;
10894;SDS011;5500;49.886;8.074;2023-01-06T02:57:00;0.70;;;0.70;;
10894;SDS011;5500;49.886;8.074;2023-01-06T03:04:46;1.30;;;1.03;;
10894;SDS011;5500;49.886;8.074;2023-01-06T03:07:18;0.63;;;0.60;;
10894;SDS011;5500;49.886;8.074;2023-01-06T03:09:47;0.97;;;0.97;;
10894;SDS011;5500;49.886;8.074;2023-01-06T03:12:17;0.70;;;0.70;;
10894;SDS011;5500;49.886;8.074;2023-01-06T03:14:49;0.80;;;0.80;;
10894;SDS011;5500;49.886;8.074;2023-01-06T03:17:19;1.20;;;1.10;;
10894;SDS011;5500;49.886;8.074;2023-01-06T03:19:46;1.13;;;0.90;;
10894;SDS011;5500;49.886;8.074;2023-01-06T03:35:00;0.47;;;0.47;;
10894;SDS011;5500;49.886;8.074;2023-01-06T03:37:36;0.23;;;0.20;;
10894;SDS011;5500;49.886;8.074;2023-01-06T03:42:49;0.47;;;0.27;;
10894;SDS011;5500;49.886;8.074;2023-01-06T04:28:42;0.77;;;0.43;;
10894;SDS011;5500;49.886;8.074;2023-01-06T04:31:10;0.40;;;0.40;;
10894;SDS011;5500;49.886;8.074;2023-01-06T04:33:37;2.07;;;0.50;;
10894;SDS011;5500;49.886;8.074;2023-01-06T04:36:05;0.83;;;0.53;;
10894;SDS011;5500;49.886;8.074;2023-01-06T04:38:35;1.50;;;0.50;;
10894;SDS011;5500;49.886;8.074;2023-01-06T04:41:03;0.27;;;0.27;;
10894;SDS011;5500;49.886;8.074;2023-01-06T04:43:30;1.90;;;0.60;;
10894;SDS011;5500;49.886;8.074;2023-01-06T04:45:59;1.47;;;0.50;;
10894;SDS011;5500;49.886;8.074;2023-01-06T04:53:36;1.07;;;0.47;;
10894;SDS011;5500;49.886;8.074;2023-01-06T04:56:05;2.00;;;0.50;;
10894;SDS011;5500;49.886;8.074;2023-01-06T04:58:34;1.90;;;0.70;;
10894;SDS011;5500;49.886;8.074;2023-01-06T05:01:04;2.00;;;0.50;;
10894;SDS011;5500;49.886;8.074;2023-01-06T05:03:33;1.37;;;0.47;;
10894;SDS011;5500;49.886;8.074;2023-01-06T05:06:01;2.03;;;0.50;;
10894;SDS011;5500;49.886;8.074;2023-01-06T05:08:30;1.07;;;0.40;;
10894;SDS011;5500;49.886;8.074;2023-01-06T05:10:58;0.40;;;0.40;;
10894;SDS011;5500;49.886;8.074;2023-01-06T05:13:27;0.73;;;0.60;;
10894;SDS011;5500;49.886;8.074;2023-01-06T05:15:55;2.20;;;0.70;;
10894;SDS011;5500;49.886;8.074;2023-01-06T05:18:23;0.67;;;0.40;;
10894;SDS011;5500;49.886;8.074;2023-01-06T05:20:52;0.43;;;0.40;;
10894;SDS011;5500;49.886;8.074;2023-01-06T05:23:20;1.30;;;0.80;;
10894;SDS011;5500;49.886;8.074;2023-01-06T05:25:49;2.20;;;0.50;;
10894;SDS011;5500;49.886;8.074;2023-01-06T05:28:17;1.33;;;0.60;;
10894;SDS011;5500;49.886;8.074;2023-01-06T05:33:13;1.80;;;0.30;;
10894;SDS011;5500;49.886;8.074;2023-01-06T05:35:42;1.60;;;0.60;;
10894;SDS011;5500;49.886;8.074;2023-01-06T05:38:09;1.90;;;0.57;;
10894;SDS011;5500;49.886;8.074;2023-01-06T05:40:37;0.60;;;0.47;;
10894;SDS011;5500;49.886;8.074;2023-01-06T05:43:05;2.23;;;0.50;;
10894;SDS011;5500;49.886;8.074;2023-01-06T05:45:32;1.20;;;0.57;;
10894;SDS011;5500;49.886;8.074;2023-01-06T05:48:00;1.50;;;0.53;;
10894;SDS011;5500;49.886;8.074;2023-01-06T05:50:28;1.80;;;0.40;;
10894;SDS011;5500;49.886;8.074;2023-01-06T05:52:57;0.40;;;0.40;;
10894;SDS011;5500;49.886;8.074;2023-01-06T05:55:25;0.37;;;0.37;;
10894;SDS011;5500;49.886;8.074;2023-01-06T05:57:52;0.80;;;0.47;;
10894;SDS011;5500;49.886;8.074;2023-01-06T06:00:20;0.87;;;0.40;;
10894;SDS011;5500;49.886;8.074;2023-01-06T06:02:48;1.50;;;0.67;;
10894;SDS011;5500;49.886;8.074;2023-01-06T06:05:16;1.80;;;0.57;;
10894;SDS011;5500;49.886;8.074;2023-01-06T06:07:43;0.50;;;0.50;;
10894;SDS011;5500;49.886;8.074;2023-01-06T06:10:12;1.70;;;0.47;;
10894;SDS011;5500;49.886;8.074;2023-01-06T06:12:40;0.50;;;0.50;;
10894;SDS011;5500;49.886;8.074;2023-01-06T06:15:08;2.40;;;0.77;;
10894;SDS011;5500;49.886;8.074;2023-01-06T06:17:36;1.03;;;0.73;;
10894;SDS011;5500;49.886;8.074;2023-01-06T06:20:04;1.33;;;0.57;;
10894;SDS011;5500;49.886;8.074;2023-01-06T06:22:32;1.50;;;0.77;;
10894;SDS011;5500;49.886;8.074;2023-01-06T06:25:00;2.20;;;0.60;;
10894;SDS011;5500;49.886;8.074;2023-01-06T06:27:29;4.10;;;0.90;;
10894;SDS011;5500;49.886;8.074;2023-01-06T06:29:56;1.60;;;0.67;;
10894;SDS011;5500;49.886;8.074;2023-01-06T06:32:24;3.27;;;0.90;;
10894;SDS011;5500;49.886;8.074;2023-01-06T06:34:51;2.43;;;0.70;;
10894;SDS011;5500;49.886;8.074;2023-01-06T06:37:19;1.23;;;0.50;;
10894;SDS011;5500;49.886;8.074;2023-01-06T06:39:47;0.87;;;0.63;;
10894;SDS011;5500;49.886;8.074;2023-01-06T06:42:14;1.57;;;0.67;;
10894;SDS011;5500;49.886;8.074;2023-01-06T06:44:43;0.40;;;0.40;;
10894;SDS011;5500;49.886;8.074;2023-01-06T07:00:40;1.53;;;0.60;;
10894;SDS011;5500;49.886;8.074;2023-01-06T07:36:22;3.03;;;0.90;;
10894;SDS011;5500;49.886;8.074;2023-01-06T07:38:50;1.83;;;0.70;;
10894;SDS011;5500;49.886;8.074;2023-01-06T07:41:17;1.80;;;1.07;;
10894;SDS011;5500;49.886;8.074;2023-01-06T07:43:45;1.40;;;0.70;;
10894;SDS011;5500;49.886;8.074;2023-01-06T07:46:13;1.73;;;1.20;;
10894;SDS011;5500;49.886;8.074;2023-01-06T07:48:41;1.10;;;0.77;;
10894;SDS011;5500;49.886;8.074;2023-01-06T07:51:09;1.77;;;1.63;;
10894;SDS011;5500;49.886;8.074;2023-01-06T07:53:39;2.83;;;1.27;;
10894;SDS011;5500;49.886;8.074;2023-01-06T07:56:06;2.13;;;0.90;;
10894;SDS011;5500;49.886;8.074;2023-01-06T07:58:34;2.43;;;1.23;;
10894;SDS011;5500;49.886;8.074;2023-01-06T08:01:03;3.07;;;0.97;;
10894;SDS011;5500;49.886;8.074;2023-01-06T08:03:32;1.30;;;1.20;;
10894;SDS011;5500;49.886;8.074;2023-01-06T08:06:04;2.17;;;0.87;;
10894;SDS011;5500;49.886;8.074;2023-01-06T08:08:34;1.23;;;0.83;;
10894;SDS011;5500;49.886;8.074;2023-01-06T08:11:04;1.23;;;0.83;;
10894;SDS011;5500;49.886;8.074;2023-01-06T08:13:33;1.43;;;1.00;;
10894;SDS011;5500;49.886;8.074;2023-01-06T08:16:02;2.63;;;1.00;;
10894;SDS011;5500;49.886;8.074;2023-01-06T08:18:30;0.67;;;0.67;;
10894;SDS011;5500;49.886;8.074;2023-01-06T08:20:58;0.50;;;0.47;;
10894;SDS011;5500;49.886;8.074;2023-01-06T08:23:27;1.20;;;0.70;;
10894;SDS011;5500;49.886;8.074;2023-01-06T08:26:00;1.40;;;0.67;;
10894;SDS011;5500;49.886;8.074;2023-01-06T08:28:29;1.33;;;0.90;;
10894;SDS011;5500;49.886;8.074;2023-01-06T08:30:57;2.63;;;1.10;;
10894;SDS011;5500;49.886;8.074;2023-01-06T08:33:25;2.00;;;1.50;;
10894;SDS011;5500;49.886;8.074;2023-01-06T08:35:56;1.80;;;1.07;;
10894;SDS011;5500;49.886;8.074;2023-01-06T08:38:25;1.30;;;1.07;;
10894;SDS011;5500;49.886;8.074;2023-01-06T08:40:52;1.57;;;0.73;;
10894;SDS011;5500;49.886;8.074;2023-01-06T08:43:21;1.23;;;0.70;;
10894;SDS011;5500;49.886;8.074;2023-01-06T08:45:50;1.00;;;0.80;;
10894;SDS011;5500;49.886;8.074;2023-01-06T08:48:21;1.43;;;0.30;;
10894;SDS011;5500;49.886;8.074;2023-01-06T08:50:48;0.50;;;0.50;;
10894;SDS011;5500;49.886;8.074;2023-01-06T08:53:16;0.40;;;0.37;;
10894;SDS011;5500;49.886;8.074;2023-01-06T08:55:44;1.00;;;0.50;;
10894;SDS011;5500;49.886;8.074;2023-01-06T08:58:11;0.77;;;0.77;;
10894;SDS011;5500;49.886;8.074;2023-01-06T09:00:40;0.73;;;0.40;;
10894;SDS011;5500;49.886;8.074;2023-01-06T09:03:09;0.50;;;0.40;;
10894;SDS011;5500;49.886;8.074;2023-01-06T09:05:37;1.50;;;0.60;;
10894;SDS011;5500;49.886;8.074;2023-01-06T09:08:05;2.10;;;0.70;;
10894;SDS011;5500;49.886;8.074;2023-01-06T09:10:35;1.33;;;0.70;;
10894;SDS011;5500;49.886;8.074;2023-01-06T09:13:03;0.50;;;0.47;;
10894;SDS011;5500;49.886;8.074;2023-01-06T09:15:31;1.20;;;0.57;;
10894;SDS011;5500;49.886;8.074;2023-01-06T09:17:59;0.73;;;0.40;;
10894;SDS011;5500;49.886;8.074;2023-01-06T09:20:28;1.97;;;0.67;;
10894;SDS011;5500;49.886;8.074;2023-01-06T09:22:55;0.40;;;0.40;;
10894;SDS011;5500;49.886;8.074;2023-01-06T09:25:23;1.23;;;0.90;;
10894;SDS011;5500;49.886;8.074;2023-01-06T09:27:51;2.27;;;0.67;;
10894;SDS011;5500;49.886;8.074;2023-01-06T09:30:18;2.20;;;0.60;;
10894;SDS011;5500;49.886;8.074;2023-01-06T09:32:46;0.87;;;0.67;;
10894;SDS011;5500;49.886;8.074;2023-01-06T09:35:14;0.97;;;0.53;;
10894;SDS011;5500;49.886;8.074;2023-01-06T09:37:43;1.50;;;0.70;;
10894;SDS011;5500;49.886;8.074;2023-01-06T09:40:13;2.10;;;1.00;;
10894;SDS011;5500;49.886;8.074;2023-01-06T09:42:44;1.87;;;0.83;;
10894;SDS011;5500;49.886;8.074;2023-01-06T09:45:17;0.60;;;0.53;;
10894;SDS011;5500;49.886;8.074;2023-01-06T09:47:46;0.33;;;0.33;;
10894;SDS011;5500;49.886;8.074;2023-01-06T09:50:19;0.70;;;0.60;;
10894;SDS011;5500;49.886;8.074;2023-01-06T09:52:54;0.67;;;0.67;;
10894;SDS011;5500;49.886;8.074;2023-01-06T09:55:24;1.67;;;0.50;;
10894;SDS011;5500;49.886;8.074;2023-01-06T09:57:57;0.83;;;0.50;;
10894;SDS011;5500;49.886;8.074;2023-01-06T10:00:29;1.50;;;0.50;;
10894;SDS011;5500;49.886;8.074;2023-01-06T10:03:01;2.70;;;0.80;;
10894;SDS011;5500;49.886;8.074;2023-01-06T10:05:31;1.07;;;0.70;;
10894;SDS011;5500;49.886;8.074;2023-01-06T10:08:06;1.40;;;0.60;;
10894;SDS011;5500;49.886;8.074;2023-01-06T10:10:41;3.00;;;0.60;;
10894;SDS011;5500;49.886;8.074;2023-01-06T10:13:16;0.50;;;0.50;;
10894;SDS011;5500;49.886;8.074;2023-01-06T10:15:55;1.13;;;0.57;;
10894;SDS011;5500;49.886;8.074;2023-01-06T10:18:29;2.10;;;0.77;;
10894;SDS011;5500;49.886;8.074;2023-01-06T10:21:01;0.60;;;0.60;;
10894;SDS011;5500;49.886;8.074;2023-01-06T10:23:41;1.43;;;0.87;;
10894;SDS011;5500;49.886;8.074;2023-01-06T10:26:15;0.73;;;0.50;;
10894;SDS011;5500;49.886;8.074;2023-01-06T10:28:49;1.10;;;1.00;;
10894;SDS011;5500;49.886;8.074;2023-01-06T10:31:19;2.23;;;0.87;;
10894;SDS011;5500;49.886;8.074;2023-01-06T10:33:50;0.83;;;0.57;;
10894;SDS011;5500;49.886;8.074;2023-01-06T10:36:19;1.03;;;0.70;;
10894;SDS011;5500;49.886;8.074;2023-01-06T10:38:51;1.50;;;0.40;;
10894;SDS011;5500;49.886;8.074;2023-01-06T10:41:21;0.40;;;0.40;;
10894;SDS011;5500;49.886;8.074;2023-01-06T10:43:51;0.97;;;0.50;;
10894;SDS011;5500;49.886;8.074;2023-01-06T10:46:19;1.10;;;1.00;;
10894;SDS011;5500;49.886;8.074;2023-01-06T10:48:47;1.57;;;0.80;;
10894;SDS011;5500;49.886;8.074;2023-01-06T10:51:19;2.53;;;0.93;;
10894;SDS011;5500;49.886;8.074;2023-01-06T10:54:00;0.40;;;0.40;;
10894;SDS011;5500;49.886;8.074;2023-01-06T10:56:32;2.50;;;0.40;;
10894;SDS011;5500;49.886;8.074;2023-01-06T10:59:04;0.50;;;0.50;;
10894;SDS011;5500;49.886;8.074;2023-01-06T11:01:33;3.70;;;0.73;;
10894;SDS011;5500;49.886;8.074;2023-01-06T11:04:03;0.57;;;0.57;;
10894;SDS011;5500;49.886;8.074;2023-01-06T11:06:33;0.90;;;0.50;;
10894;SDS011;5500;49.886;8.074;2023-01-06T11:09:06;1.67;;;0.80;;
10894;SDS011;5500;49.886;8.074;2023-01-06T11:11:43;0.80;;;0.70;;
10894;SDS011;5500;49.886;8.074;2023-01-06T11:14:14;0.70;;;0.70;;
10894;SDS011;5500;49.886;8.074;2023-01-06T11:16:46;1.17;;;0.67;;
10894;SDS011;5500;49.886;8.074;2023-01-06T11:19:20;2.60;;;1.17;;
10894;SDS011;5500;49.886;8.074;2023-01-06T11:21:49;1.37;;;1.13;;
10894;SDS011;5500;49.886;8.074;2023-01-06T11:24:19;4.00;;;1.03;;
10894;SDS011;5500;49.886;8.074;2023-01-06T11:26:51;0.70;;;0.70;;
10894;SDS011;5500;49.886;8.074;2023-01-06T11:29:25;1.30;;;0.80;;
10894;SDS011;5500;49.886;8.074;2023-01-06T11:31:54;0.67;;;0.67;;
10894;SDS011;5500;49.886;8.074;2023-01-06T11:34:23;1.00;;;0.80;;
10894;SDS011;5500;49.886;8.074;2023-01-06T11:36:54;3.00;;;0.97;;
10894;SDS011;5500;49.886;8.074;2023-01-06T11:39:25;2.23;;;0.90;;
10894;SDS011;5500;49.886;8.074;2023-01-06T11:41:55;2.90;;;1.27;;
10894;SDS011;5500;49.886;8.074;2023-01-06T11:44:25;1.23;;;0.90;;
10894;SDS011;5500;49.886;8.074;2023-01-06T11:46:57;2.17;;;0.97;;
10894;SDS011;5500;49.886;8.074;2023-01-06T11:49:27;0.80;;;0.80;;
10894;SDS011;5500;49.886;8.074;2023-01-06T11:52:00;1.30;;;0.70;;
10894;SDS011;5500;49.886;8.074;2023-01-06T11:54:31;1.63;;;0.90;;
10894;SDS011;5500;49.886;8.074;2023-01-06T11:57:02;3.13;;;0.90;;
10894;SDS011;5500;49.886;8.074;2023-01-06T11:59:47;2.30;;;1.40;;
10894;SDS011;5500;49.886;8.074;2023-01-06T12:02:21;2.33;;;1.30;;
10894;SDS011;5500;49.886;8.074;2023-01-06T12:04:52;2.30;;;1.23;;
10894;SDS011;5500;49.886;8.074;2023-01-06T12:07:22;1.37;;;1.27;;
10894;SDS011;5500;49.886;8.074;2023-01-06T12:09:57;1.27;;;0.97;;
10894;SDS011;5500;49.886;8.074;2023-01-06T12:12:28;3.43;;;1.93;;
10894;SDS011;5500;49.886;8.074;2023-01-06T12:14:55;1.33;;;1.10;;
10894;SDS011;5500;49.886;8.074;2023-01-06T12:17:29;2.43;;;1.23;;
10894;SDS011;5500;49.886;8.074;2023-01-06T12:20:05;2.47;;;1.40;;
10894;SDS011;5500;49.886;8.074;2023-01-06T12:22:35;1.20;;;1.10;;
10894;SDS011;5500;49.886;8.074;2023-01-06T12:25:08;1.20;;;1.10;;
10894;SDS011;5500;49.886;8.074;2023-01-06T12:27:38;3.27;;;1.07;;
10894;SDS011;5500;49.886;8.074;2023-01-06T12:30:12;1.30;;;1.10;;
10894;SDS011;5500;49.886;8.074;2023-01-06T12:32:44;1.50;;;1.17;;
10894;SDS011;5500;49.886;8.074;2023-01-06T12:35:15;3.67;;;1.20;;
10894;SDS011;5500;49.886;8.074;2023-01-06T12:37:47;1.30;;;0.90;;
10894;SDS011;5500;49.886;8.074;2023-01-06T12:40:20;1.03;;;0.90;;
10894;SDS011;5500;49.886;8.074;2023-01-06T12:42:51;1.53;;;1.00;;
10894;SDS011;5500;49.886;8.074;2023-01-06T12:45:23;0.70;;;0.70;;
10894;SDS011;5500;49.886;8.074;2023-01-06T12:47:57;0.83;;;0.83;;
10894;SDS011;5500;49.886;8.074;2023-01-06T12:50:27;1.90;;;1.20;;
10894;SDS011;5500;49.886;8.074;2023-01-06T12:53:00;1.20;;;1.00;;
10894;SDS011;5500;49.886;8.074;2023-01-06T12:55:48;1.30;;;0.80;;
10894;SDS011;5500;49.886;8.074;2023-01-06T12:58:22;1.27;;;1.10;;
10894;SDS011;5500;49.886;8.074;2023-01-06T13:00:52;1.30;;;0.90;;
10894;SDS011;5500;49.886;8.074;2023-01-06T13:03:26;0.50;;;0.50;;
10894;SDS011;5500;49.886;8.074;2023-01-06T13:06:24;1.40;;;0.97;;
10894;SDS011;5500;49.886;8.074;2023-01-06T13:09:01;1.10;;;0.90;;
10894;SDS011;5500;49.886;8.074;2023-01-06T13:11:41;0.97;;;0.87;;
10894;SDS011;5500;49.886;8.074;2023-01-06T13:14:20;1.37;;;0.67;;
10894;SDS011;5500;49.886;8.074;2023-01-06T13:16:52;0.73;;;0.73;;
10894;SDS011;5500;49.886;8.074;2023-01-06T13:19:27;1.60;;;0.57;;
10894;SDS011;5500;49.886;8.074;2023-01-06T13:22:00;1.67;;;0.80;;
10894;SDS011;5500;49.886;8.074;2023-01-06T13:24:33;0.87;;;0.80;;
10894;SDS011;5500;49.886;8.074;2023-01-06T13:30:02;0.47;;;0.47;;
10894;SDS011;5500;49.886;8.074;2023-01-06T13:32:41;1.30;;;0.63;;
10894;SDS011;5500;49.886;8.074;2023-01-06T13:35:23;1.90;;;0.83;;
10894;SDS011;5500;49.886;8.074;2023-01-06T13:37:59;0.67;;;0.60;;
10894;SDS011;5500;49.886;8.074;2023-01-06T13:40:35;1.77;;;0.60;;
10894;SDS011;5500;49.886;8.074;2023-01-06T13:43:06;1.17;;;0.70;;
10894;SDS011;5500;49.886;8.074;2023-01-06T13:45:42;0.60;;;0.60;;
10894;SDS011;5500;49.886;8.074;2023-01-06T13:48:13;0.63;;;0.57;;
10894;SDS011;5500;49.886;8.074;2023-01-06T13:50:43;1.13;;;0.80;;
10894;SDS011;5500;49.886;8.074;2023-01-06T13:53:12;0.87;;;0.87;;
10894;SDS011;5500;49.886;8.074;2023-01-06T13:55:42;1.87;;;0.57;;
10894;SDS011;5500;49.886;8.074;2023-01-06T14:01:28;0.80;;;0.80;;
10894;SDS011;5500;49.886;8.074;2023-01-06T14:07:32;0.93;;;0.60;;
10894;SDS011;5500;49.886;8.074;2023-01-06T14:10:01;3.47;;;0.80;;
10894;SDS011;5500;49.886;8.074;2023-01-06T14:15:03;1.23;;;0.80;;
10894;SDS011;5500;49.886;8.074;2023-01-06T14:17:38;1.33;;;0.73;;
10894;SDS011;5500;49.886;8.074;2023-01-06T14:22:34;1.13;;;0.80;;
10894;SDS011;5500;49.886;8.074;2023-01-06T14:25:05;0.67;;;0.63;;
10894;SDS011;5500;49.886;8.074;2023-01-06T14:30:34;1.30;;;0.40;;
10894;SDS011;5500;49.886;8.074;2023-01-06T14:33:20;3.83;;;0.70;;
10894;SDS011;5500;49.886;8.074;2023-01-06T14:35:50;0.80;;;0.50;;
10894;SDS011;5500;49.886;8.074;2023-01-06T14:38:27;3.80;;;0.90;;
10894;SDS011;5500;49.886;8.074;2023-01-06T14:40:57;1.07;;;0.70;;
10894;SDS011;5500;49.886;8.074;2023-01-06T14:43:31;0.87;;;0.57;;
10894;SDS011;5500;49.886;8.074;2023-01-06T14:46:03;0.83;;;0.70;;
10894;SDS011;5500;49.886;8.074;2023-01-06T14:48:37;1.47;;;0.60;;
10894;SDS011;5500;49.886;8.074;2023-01-06T14:51:11;1.03;;;0.70;;
10894;SDS011;5500;49.886;8.074;2023-01-06T14:53:45;0.63;;;0.53;;
10894;SDS011;5500;49.886;8.074;2023-01-06T14:56:19;1.13;;;0.60;;
10894;SDS011;5500;49.886;8.074;2023-01-06T14:58:49;1.57;;;0.70;;
10894;SDS011;5500;49.886;8.074;2023-01-06T15:01:21;0.60;;;0.60;;
10894;SDS011;5500;49.886;8.074;2023-01-06T15:03:56;2.07;;;0.60;;
10894;SDS011;5500;49.886;8.074;2023-01-06T15:06:26;0.83;;;0.83;;
10894;SDS011;5500;49.886;8.074;2023-01-06T15:08:54;1.10;;;1.00;;
10894;SDS011;5500;49.886;8.074;2023-01-06T15:11:39;1.13;;;1.03;;
10894;SDS011;5500;49.886;8.074;2023-01-06T15:14:21;1.43;;;1.00;;
10894;SDS011;5500;49.886;8.074;2023-01-06T15:16:50;1.57;;;0.90;;
10894;SDS011;5500;49.886;8.074;2023-01-06T15:19:19;1.10;;;1.00;;
10894;SDS011;5500;49.886;8.074;2023-01-06T15:21:47;0.80;;;0.80;;
10894;SDS011;5500;49.886;8.074;2023-01-06T15:24:17;1.37;;;0.90;;
10894;SDS011;5500;49.886;8.074;2023-01-06T15:26:46;3.20;;;1.00;;
10894;SDS011;5500;49.886;8.074;2023-01-06T15:29:15;0.87;;;0.83;;
10894;SDS011;5500;49.886;8.074;2023-01-06T15:31:44;1.93;;;1.10;;
10894;SDS011;5500;49.886;8.074;2023-01-06T15:34:14;1.77;;;1.30;;
10894;SDS011;5500;49.886;8.074;2023-01-06T15:36:45;1.17;;;0.90;;
10894;SDS011;5500;49.886;8.074;2023-01-06T15:39:14;0.73;;;0.73;;
10894;SDS011;5500;49.886;8.074;2023-01-06T15:41:46;1.07;;;0.50;;
10894;SDS011;5500;49.886;8.074;2023-01-06T15:47:06;0.43;;;0.40;;
10894;SDS011;5500;49.886;8.074;2023-01-06T15:49:41;1.40;;;0.83;;
10894;SDS011;5500;49.886;8.074;2023-01-06T15:52:19;1.33;;;0.90;;
10894;SDS011;5500;49.886;8.074;2023-01-06T15:54:50;1.37;;;1.07;;
10894;SDS011;5500;49.886;8.074;2023-01-06T15:57:19;0.73;;;0.73;;
10894;SDS011;5500;49.886;8.074;2023-01-06T15:59:51;1.17;;;0.90;;
10894;SDS011;5500;49.886;8.074;2023-01-06T16:02:22;1.63;;;0.90;;
10894;SDS011;5500;49.886;8.074;2023-01-06T16:04:52;2.07;;;0.80;;
10894;SDS011;5500;49.886;8.074;2023-01-06T16:07:28;0.77;;;0.77;;
10894;SDS011;5500;49.886;8.074;2023-01-06T16:10:00;2.73;;;2.37;;
10894;SDS011;5500;49.886;8.074;2023-01-06T16:12:27;1.47;;;1.30;;
10894;SDS011;5500;49.886;8.074;2023-01-06T16:14:55;0.87;;;0.83;;
10894;SDS011;5500;49.886;8.074;2023-01-06T16:17:25;0.60;;;0.60;;
10894;SDS011;5500;49.886;8.074;2023-01-06T16:19:56;1.40;;;1.13;;
10894;SDS011;5500;49.886;8.074;2023-01-06T16:22:31;0.73;;;0.73;;
10894;SDS011;5500;49.886;8.074;2023-01-06T16:25:00;0.80;;;0.80;;
10894;SDS011;5500;49.886;8.074;2023-01-06T16:27:30;1.30;;;1.00;;
10894;SDS011;5500;49.886;8.074;2023-01-06T16:33:01;2.47;;;2.10;;
10894;SDS011;5500;49.886;8.074;2023-01-06T16:35:30;2.43;;;0.93;;
10894;SDS011;5500;49.886;8.074;2023-01-06T16:38:00;0.83;;;0.83;;
10894;SDS011;5500;49.886;8.074;2023-01-06T16:40:28;0.83;;;0.83;;
10894;SDS011;5500;49.886;8.074;2023-01-06T16:42:57;0.77;;;0.77;;
10894;SDS011;5500;49.886;8.074;2023-01-06T16:45:27;1.27;;;1.07;;
10894;SDS011;5500;49.886;8.074;2023-01-06T16:47:59;1.23;;;1.00;;
10894;SDS011;5500;49.886;8.074;2023-01-06T16:50:30;1.80;;;1.20;;
10894;SDS011;5500;49.886;8.074;2023-01-06T16:53:11;1.73;;;1.47;;
10894;SDS011;5500;49.886;8.074;2023-01-06T16:55:40;1.80;;;1.20;;
10894;SDS011;5500;49.886;8.074;2023-01-06T16:58:12;1.70;;;1.60;;
10894;SDS011;5500;49.886;8.074;2023-01-06T17:00:42;2.10;;;1.90;;
10894;SDS011;5500;49.886;8.074;2023-01-06T17:03:14;2.37;;;2.17;;
10894;SDS011;5500;49.886;8.074;2023-01-06T17:05:43;3.83;;;3.43;;
10894;SDS011;5500;49.886;8.074;2023-01-06T17:08:13;2.97;;;2.10;;
10894;SDS011;5500;49.886;8.074;2023-01-06T17:10:41;3.90;;;3.40;;
10894;SDS011;5500;49.886;8.074;2023-01-06T17:13:12;5.93;;;4.60;;
10894;SDS011;5500;49.886;8.074;2023-01-06T17:15:58;4.30;;;3.90;;
10894;SDS011;5500;49.886;8.074;2023-01-06T17:18:27;2.63;;;2.43;;
10894;SDS011;5500;49.886;8.074;2023-01-06T17:20:59;2.83;;;2.63;;
10894;SDS011;5500;49.886;8.074;2023-01-06T17:23:29;5.10;;;4.70;;
10894;SDS011;5500;49.886;8.074;2023-01-06T17:26:04;1.50;;;1.40;;
10894;SDS011;5500;49.886;8.074;2023-01-06T17:28:36;1.57;;;1.47;;
10894;SDS011;5500;49.886;8.074;2023-01-06T17:31:07;1.67;;;1.43;;
10894;SDS011;5500;49.886;8.074;2023-01-06T17:33:38;0.90;;;0.90;;
10894;SDS011;5500;49.886;8.074;2023-01-06T17:36:07;1.03;;;1.00;;
10894;SDS011;5500;49.886;8.074;2023-01-06T17:38:46;1.27;;;1.17;;
10894;SDS011;5500;49.886;8.074;2023-01-06T17:41:14;1.90;;;1.33;;
10894;SDS011;5500;49.886;8.074;2023-01-06T17:43:42;2.80;;;1.80;;
10894;SDS011;5500;49.886;8.074;2023-01-06T17:46:18;1.97;;;1.83;;
10894;SDS011;5500;49.886;8.074;2023-01-06T17:48:49;2.97;;;1.73;;
10894;SDS011;5500;49.886;8.074;2023-01-06T17:51:18;2.20;;;2.00;;
10894;SDS011;5500;49.886;8.074;2023-01-06T17:53:47;3.53;;;2.37;;
10894;SDS011;5500;49.886;8.074;2023-01-06T17:56:32;4.87;;;4.10;;
10894;SDS011;5500;49.886;8.074;2023-01-06T17:59:01;5.73;;;3.53;;
10894;SDS011;5500;49.886;8.074;2023-01-06T18:01:32;5.53;;;3.87;;
10894;SDS011;5500;49.886;8.074;2023-01-06T18:04:01;2.27;;;2.07;;
10894;SDS011;5500;49.886;8.074;2023-01-06T18:06:31;1.83;;;1.70;;
10894;SDS011;5500;49.886;8.074;2023-01-06T18:09:09;2.50;;;1.60;;
10894;SDS011;5500;49.886;8.074;2023-01-06T18:11:38;3.10;;;2.33;;
10894;SDS011;5500;49.886;8.074;2023-01-06T18:14:15;2.43;;;1.83;;
10894;SDS011;5500;49.886;8.074;2023-01-06T18:16:45;2.33;;;1.87;;
10894;SDS011;5500;49.886;8.074;2023-01-06T18:19:17;1.77;;;1.60;;
10894;SDS011;5500;49.886;8.074;2023-01-06T18:21:50;2.17;;;1.70;;
10894;SDS011;5500;49.886;8.074;2023-01-06T18:24:21;2.80;;;2.50;;
10894;SDS011;5500;49.886;8.074;2023-01-06T18:26:52;2.00;;;1.87;;
10894;SDS011;5500;49.886;8.074;2023-01-06T18:29:22;2.20;;;2.00;;
10894;SDS011;5500;49.886;8.074;2023-01-06T18:31:51;2.20;;;1.80;;
10894;SDS011;5500;49.886;8.074;2023-01-06T18:37:05;5.40;;;4.27;;
10894;SDS011;5500;49.886;8.074;2023-01-06T18:39:38;4.43;;;3.47;;
10894;SDS011;5500;49.886;8.074;2023-01-06T18:42:16;2.97;;;2.60;;
10894;SDS011;5500;49.886;8.074;2023-01-06T18:44:45;3.37;;;2.30;;
10894;SDS011;5500;49.886;8.074;2023-01-06T18:47:14;2.53;;;2.33;;
10894;SDS011;5500;49.886;8.074;2023-01-06T18:49:43;3.13;;;2.10;;
10894;SDS011;5500;49.886;8.074;2023-01-06T18:55:14;3.43;;;2.70;;
10894;SDS011;5500;49.886;8.074;2023-01-06T18:57:52;2.97;;;2.67;;
10894;SDS011;5500;49.886;8.074;2023-01-06T19:00:32;3.93;;;2.47;;
10894;SDS011;5500;49.886;8.074;2023-01-06T19:03:05;2.47;;;2.27;;
10894;SDS011;5500;49.886;8.074;2023-01-06T19:05:41;2.07;;;1.93;;
10894;SDS011;5500;49.886;8.074;2023-01-06T19:08:09;2.50;;;2.30;;
10894;SDS011;5500;49.886;8.074;2023-01-06T19:10:44;1.90;;;1.70;;
10894;SDS011;5500;49.886;8.074;2023-01-06T19:13:13;2.40;;;2.20;;
10894;SDS011;5500;49.886;8.074;2023-01-06T19:15:45;4.47;;;3.80;;
10894;SDS011;5500;49.886;8.074;2023-01-06T19:18:14;6.13;;;3.57;;
10894;SDS011;5500;49.886;8.074;2023-01-06T19:20:43;3.07;;;2.77;;
10894;SDS011;5500;49.886;8.074;2023-01-06T19:23:14;3.40;;;2.73;;
10894;SDS011;5500;49.886;8.074;2023-01-06T19:25:46;2.87;;;2.30;;
10894;SDS011;5500;49.886;8.074;2023-01-06T19:28:17;5.30;;;3.10;;
10894;SDS011;5500;49.886;8.074;2023-01-06T19:30:47;2.60;;;1.70;;
10894;SDS011;5500;49.886;8.074;2023-01-06T19:33:24;1.57;;;1.47;;
10894;SDS011;5500;49.886;8.074;2023-01-06T19:35:56;1.97;;;1.80;;
10894;SDS011;5500;49.886;8.074;2023-01-06T19:38:27;1.90;;;1.80;;
10894;SDS011;5500;49.886;8.074;2023-01-06T19:40:57;2.10;;;2.00;;
10894;SDS011;5500;49.886;8.074;2023-01-06T19:43:28;2.53;;;2.10;;